Delta Ocean — SVAU9 — position and weather

sailwx.info

Track history (hours):
 
Tides and Currents Weather Stations Pressure Air Temp Water Temp Dewpoint Dewpoint Depression Visibility Wind Speed Wind Dir Waves Ship Positions

Delta Ocean

Last reported at 2014-Sep-21 23:33 UTC. Time now 2014-Sep-22 00:12 UTC.
Position N 44°35' E 037°53'.

Length 274 m; draft 9.1 m.

Type: Tanker. MMSI: 240958000.

Date/timePositionNaut miles runAvg speedWind from/ knotsBaromVisibWave heightAir tempDewpointWater temp
2014-Sep-21 23:33N 44°35' E 037°53'0 0.4
2014-Sep-21 22:33N 44°35' E 037°52'4 3.6
2014-Sep-21 21:33N 44°32' E 037°51'9 8.6
2014-Sep-21 20:33N 44°24' E 037°55'1 1.2
2014-Sep-21 19:33N 44°23' E 037°56'1 1.3
2014-Sep-21 18:33N 44°24' E 037°56'1 1.3
2014-Sep-21 17:33N 44°25' E 037°56'1 1.2
2014-Sep-21 16:33N 44°26' E 037°57'1 1.0
2014-Sep-21 15:33N 44°27' E 037°57'1 0.9
2014-Sep-21 14:33N 44°28' E 037°57'1 0.8
2014-Sep-21 13:33N 44°29' E 037°57'1 0.7
2014-Sep-21 12:33N 44°30' E 037°57'0 0.5
2014-Sep-21 11:33N 44°30' E 037°57'1 0.7
2014-Sep-21 10:33N 44°31' E 037°56'1 0.7
2014-Sep-21 09:33N 44°31' E 037°55'1 0.7
2014-Sep-21 08:33N 44°31' E 037°54'1 0.6
2014-Sep-21 07:33N 44°31' E 037°53'0 0.4
2014-Sep-21 06:33N 44°31' E 037°53'0 0.3
2014-Sep-21 05:33N 44°31' E 037°52'0 0.2
2014-Sep-21 04:33N 44°30' E 037°52'0 0.3
2014-Sep-21 03:33N 44°30' E 037°52'0 0.2
2014-Sep-21 02:33N 44°30' E 037°52'0 0.1
2014-Sep-21 01:33N 44°30' E 037°52'0 0.1
2014-Sep-21 00:33N 44°30' E 037°52'0 0.2
2014-Sep-20 23:33N 44°30' E 037°52'0 0.0
2014-Sep-20 22:33N 44°30' E 037°52'0 0.3
2014-Sep-20 21:33N 44°30' E 037°52'0 0.3
2014-Sep-20 20:33N 44°30' E 037°51'0 0.3
2014-Sep-20 19:33N 44°30' E 037°51'0 0.1
2014-Sep-20 18:33N 44°30' E 037°51'0 0.1
2014-Sep-20 17:33N 44°30' E 037°51'0 0.1
2014-Sep-20 16:33N 44°30' E 037°51'0 0.2
2014-Sep-20 15:33N 44°30' E 037°51'0 0.2
2014-Sep-20 14:33N 44°30' E 037°51'0 0.1
2014-Sep-20 13:33N 44°30' E 037°51'0 0.2
2014-Sep-20 12:33N 44°30' E 037°51'0 0.4
2014-Sep-20 11:33N 44°30' E 037°51'0 0.4
2014-Sep-20 10:33N 44°31' E 037°51'1 1.3
2014-Sep-20 09:33N 44°32' E 037°50'6 5.9
2014-Sep-20 08:33N 44°29' E 037°43'6 5.7
2014-Sep-20 07:33N 44°26' E 037°36'6 5.6
2014-Sep-20 06:33N 44°24' E 037°28'6 5.7
2014-Sep-20 05:33N 44°21' E 037°21'6 5.7
2014-Sep-20 04:33N 44°19' E 037°14'  
2014-Sep-16 14:21N 41°31' E 029°40'4 5.5
2014-Sep-16 13:33N 41°29' E 029°35'6 5.7
2014-Sep-16 12:33N 41°26' E 029°29'7 7.2
2014-Sep-16 11:33N 41°22' E 029°21'30 9.9
2014-Sep-16 08:33N 40°57' E 028°59'7 6.9
2014-Sep-16 07:33N 40°52' E 028°54'4 3.8
2014-Sep-16 06:30N 40°48' E 028°52'2 2.4
2014-Sep-16 05:33N 40°46' E 028°50'1 0.8
2014-Sep-16 04:31N 40°45' E 028°49'1 0.5
2014-Sep-16 03:33N 40°46' E 028°50'1 0.6
2014-Sep-16 02:32N 40°47' E 028°50'1 0.7
2014-Sep-16 01:33N 40°47' E 028°49'2 2.0
2014-Sep-16 00:32N 40°48' E 028°47'7 7.0
2014-Sep-15 23:31N 40°47' E 028°38'213 7.2
2014-Sep-14 18:04N 38°33' E 025°02'17 6.1
2014-Sep-14 15:19N 38°19' E 024°51'28 5.9
2014-Sep-14 10:32N 37°53' E 024°36'5 5.4
2014-Sep-14 09:33N 37°48' E 024°34'6 5.6
2014-Sep-14 08:33N 37°43' E 024°32'6 5.9
2014-Sep-14 07:33N 37°37' E 024°29'6 5.7
2014-Sep-14 06:33N 37°32' E 024°26'7 6.4
2014-Sep-14 05:26N 37°27' E 024°20'6 6.4
2014-Sep-14 04:33N 37°22' E 024°16'6 6.3
2014-Sep-14 03:33N 37°17' E 024°11'6 6.2
2014-Sep-14 02:33N 37°12' E 024°06'6 6.1
2014-Sep-14 01:33N 37°07' E 024°02'32 7.9
2014-Sep-13 21:33N 36°42' E 023°38'9 8.9
2014-Sep-13 20:33N 36°35' E 023°31'10 8.6
2014-Sep-13 19:25N 36°27' E 023°24'12 8.7
2014-Sep-13 18:03N 36°22' E 023°11'5 8.9
2014-Sep-13 17:32N 36°23' E 023°05'17 8.4
2014-Sep-13 15:33N 36°22' E 022°44'9 9.1
2014-Sep-13 14:33N 36°21' E 022°33'  
Track history (hours):
 
Tides and Currents Weather Stations Pressure Air Temp Water Temp Dewpoint Dewpoint Depression Visibility Wind Speed Wind Dir Waves Ship Positions

Delta Ocean

Last reported at 2014-Sep-21 23:33 UTC. Time now 2014-Sep-22 00:12 UTC.
Position N 44°35' E 037°53'.

Length 274 m; draft 9.1 m.

Type: Tanker. MMSI: 240958000.

Date/timePositionNaut miles runAvg speedWind from/ knotsBaromVisibWave heightAir tempDewpointWater temp
2014-Sep-21 23:33N 44°35' E 037°53'0 0.4
2014-Sep-21 22:33N 44°35' E 037°52'4 3.6
2014-Sep-21 21:33N 44°32' E 037°51'9 8.6
2014-Sep-21 20:33N 44°24' E 037°55'1 1.2
2014-Sep-21 19:33N 44°23' E 037°56'1 1.3
2014-Sep-21 18:33N 44°24' E 037°56'1 1.3
2014-Sep-21 17:33N 44°25' E 037°56'1 1.2
2014-Sep-21 16:33N 44°26' E 037°57'1 1.0
2014-Sep-21 15:33N 44°27' E 037°57'1 0.9
2014-Sep-21 14:33N 44°28' E 037°57'1 0.8
2014-Sep-21 13:33N 44°29' E 037°57'1 0.7
2014-Sep-21 12:33N 44°30' E 037°57'0 0.5
2014-Sep-21 11:33N 44°30' E 037°57'1 0.7
2014-Sep-21 10:33N 44°31' E 037°56'1 0.7
2014-Sep-21 09:33N 44°31' E 037°55'1 0.7
2014-Sep-21 08:33N 44°31' E 037°54'1 0.6
2014-Sep-21 07:33N 44°31' E 037°53'0 0.4
2014-Sep-21 06:33N 44°31' E 037°53'0 0.3
2014-Sep-21 05:33N 44°31' E 037°52'0 0.2
2014-Sep-21 04:33N 44°30' E 037°52'0 0.3
2014-Sep-21 03:33N 44°30' E 037°52'0 0.2
2014-Sep-21 02:33N 44°30' E 037°52'0 0.1
2014-Sep-21 01:33N 44°30' E 037°52'0 0.1
2014-Sep-21 00:33N 44°30' E 037°52'0 0.2
2014-Sep-20 23:33N 44°30' E 037°52'0 0.0
2014-Sep-20 22:33N 44°30' E 037°52'0 0.3
2014-Sep-20 21:33N 44°30' E 037°52'0 0.3
2014-Sep-20 20:33N 44°30' E 037°51'0 0.3
2014-Sep-20 19:33N 44°30' E 037°51'0 0.1
2014-Sep-20 18:33N 44°30' E 037°51'0 0.1
2014-Sep-20 17:33N 44°30' E 037°51'0 0.1
2014-Sep-20 16:33N 44°30' E 037°51'0 0.2
2014-Sep-20 15:33N 44°30' E 037°51'0 0.2
2014-Sep-20 14:33N 44°30' E 037°51'0 0.1
2014-Sep-20 13:33N 44°30' E 037°51'0 0.2
2014-Sep-20 12:33N 44°30' E 037°51'0 0.4
2014-Sep-20 11:33N 44°30' E 037°51'0 0.4
2014-Sep-20 10:33N 44°31' E 037°51'1 1.3
2014-Sep-20 09:33N 44°32' E 037°50'6 5.9
2014-Sep-20 08:33N 44°29' E 037°43'6 5.7
2014-Sep-20 07:33N 44°26' E 037°36'6 5.6
2014-Sep-20 06:33N 44°24' E 037°28'6 5.7
2014-Sep-20 05:33N 44°21' E 037°21'6 5.7
2014-Sep-20 04:33N 44°19' E 037°14'  
2014-Sep-16 14:21N 41°31' E 029°40'4 5.5
2014-Sep-16 13:33N 41°29' E 029°35'6 5.7
2014-Sep-16 12:33N 41°26' E 029°29'7 7.2
2014-Sep-16 11:33N 41°22' E 029°21'30 9.9
2014-Sep-16 08:33N 40°57' E 028°59'7 6.9
2014-Sep-16 07:33N 40°52' E 028°54'4 3.8
2014-Sep-16 06:30N 40°48' E 028°52'2 2.4
2014-Sep-16 05:33N 40°46' E 028°50'1 0.8
2014-Sep-16 04:31N 40°45' E 028°49'1 0.5
2014-Sep-16 03:33N 40°46' E 028°50'1 0.6
2014-Sep-16 02:32N 40°47' E 028°50'1 0.7
2014-Sep-16 01:33N 40°47' E 028°49'2 2.0
2014-Sep-16 00:32N 40°48' E 028°47'7 7.0
2014-Sep-15 23:31N 40°47' E 028°38'213 7.2
2014-Sep-14 18:04N 38°33' E 025°02'17 6.1
2014-Sep-14 15:19N 38°19' E 024°51'28 5.9
2014-Sep-14 10:32N 37°53' E 024°36'5 5.4
2014-Sep-14 09:33N 37°48' E 024°34'6 5.6
2014-Sep-14 08:33N 37°43' E 024°32'6 5.9
2014-Sep-14 07:33N 37°37' E 024°29'6 5.7
2014-Sep-14 06:33N 37°32' E 024°26'7 6.4
2014-Sep-14 05:26N 37°27' E 024°20'6 6.4
2014-Sep-14 04:33N 37°22' E 024°16'6 6.3
2014-Sep-14 03:33N 37°17' E 024°11'6 6.2
2014-Sep-14 02:33N 37°12' E 024°06'6 6.1
2014-Sep-14 01:33N 37°07' E 024°02'32 7.9
2014-Sep-13 21:33N 36°42' E 023°38'9 8.9
2014-Sep-13 20:33N 36°35' E 023°31'10 8.6
2014-Sep-13 19:25N 36°27' E 023°24'12 8.7
2014-Sep-13 18:03N 36°22' E 023°11'5 8.9
2014-Sep-13 17:32N 36°23' E 023°05'17 8.4
2014-Sep-13 15:33N 36°22' E 022°44'9 9.1
2014-Sep-13 14:33N 36°21' E 022°33'  

Dump ship's entire track history